sensor_id;sensor_type;location;lat;lon;timestamp;temperature;humidity
69082;DHT22;69029;51.986;5.760;2023-04-25T00:01:11;7.70;98.20
69082;DHT22;69029;51.986;5.760;2023-04-25T00:03:38;7.60;99.00
69082;DHT22;69029;51.986;5.760;2023-04-25T00:06:04;7.50;99.20
69082;DHT22;69029;51.986;5.760;2023-04-25T00:08:30;7.40;99.90
69082;DHT22;69029;51.986;5.760;2023-04-25T00:10:57;7.40;99.60
69082;DHT22;69029;51.986;5.760;2023-04-25T00:13:22;7.30;99.20
69082;DHT22;69029;51.986;5.760;2023-04-25T00:15:48;7.30;99.00
69082;DHT22;69029;51.986;5.760;2023-04-25T00:18:14;7.30;99.90
69082;DHT22;69029;51.986;5.760;2023-04-25T00:20:40;7.20;99.50
69082;DHT22;69029;51.986;5.760;2023-04-25T00:23:09;7.20;99.90
69082;DHT22;69029;51.986;5.760;2023-04-25T00:25:35;7.20;99.90
69082;DHT22;69029;51.986;5.760;2023-04-25T00:28:01;7.20;99.90
69082;DHT22;69029;51.986;5.760;2023-04-25T00:30:26;7.10;99.90
69082;DHT22;69029;51.986;5.760;2023-04-25T00:32:52;7.10;99.90
69082;DHT22;69029;51.986;5.760;2023-04-25T00:35:18;7.10;99.90
69082;DHT22;69029;51.986;5.760;2023-04-25T00:37:44;7.10;99.90
69082;DHT22;69029;51.986;5.760;2023-04-25T00:40:10;7.10;99.90
69082;DHT22;69029;51.986;5.760;2023-04-25T00:42:36;7.00;99.90
69082;DHT22;69029;51.986;5.760;2023-04-25T00:45:05;7.00;99.90
69082;DHT22;69029;51.986;5.760;2023-04-25T00:47:31;7.00;99.90
69082;DHT22;69029;51.986;5.760;2023-04-25T00:49:57;7.00;99.90
69082;DHT22;69029;51.986;5.760;2023-04-25T00:52:23;7.00;99.90
69082;DHT22;69029;51.986;5.760;2023-04-25T00:54:51;7.00;99.90
69082;DHT22;69029;51.986;5.760;2023-04-25T00:57:17;6.90;99.90
69082;DHT22;69029;51.986;5.760;2023-04-25T00:59:45;6.90;99.90
69082;DHT22;69029;51.986;5.760;2023-04-25T01:02:12;6.80;99.90
69082;DHT22;69029;51.986;5.760;2023-04-25T01:04:38;6.80;99.90
69082;DHT22;69029;51.986;5.760;2023-04-25T01:07:04;6.80;99.90
69082;DHT22;69029;51.986;5.760;2023-04-25T01:09:30;6.70;99.90
69082;DHT22;69029;51.986;5.760;2023-04-25T01:11:57;6.70;99.90
69082;DHT22;69029;51.986;5.760;2023-04-25T01:14:23;6.60;99.90
69082;DHT22;69029;51.986;5.760;2023-04-25T01:16:49;6.70;99.90
69082;DHT22;69029;51.986;5.760;2023-04-25T01:19:16;6.70;99.90
69082;DHT22;69029;51.986;5.760;2023-04-25T01:21:43;6.70;99.90
69082;DHT22;69029;51.986;5.760;2023-04-25T01:24:09;6.70;99.90
69082;DHT22;69029;51.986;5.760;2023-04-25T01:26:36;6.70;99.90
69082;DHT22;69029;51.986;5.760;2023-04-25T01:29:03;6.70;99.90
69082;DHT22;69029;51.986;5.760;2023-04-25T01:31:29;6.70;99.90
69082;DHT22;69029;51.986;5.760;2023-04-25T01:33:55;6.70;99.90
69082;DHT22;69029;51.986;5.760;2023-04-25T01:36:21;6.80;99.90
69082;DHT22;69029;51.986;5.760;2023-04-25T01:38:47;6.80;99.90
69082;DHT22;69029;51.986;5.760;2023-04-25T01:41:14;6.80;99.90
69082;DHT22;69029;51.986;5.760;2023-04-25T01:43:40;6.80;99.90
69082;DHT22;69029;51.986;5.760;2023-04-25T01:46:06;6.80;99.90
69082;DHT22;69029;51.986;5.760;2023-04-25T01:48:31;6.80;99.90
69082;DHT22;69029;51.986;5.760;2023-04-25T01:50:57;6.80;99.90
69082;DHT22;69029;51.986;5.760;2023-04-25T01:53:23;6.80;99.90
69082;DHT22;69029;51.986;5.760;2023-04-25T01:55:50;6.80;99.80
69082;DHT22;69029;51.986;5.760;2023-04-25T01:58:15;6.80;99.90
69082;DHT22;69029;51.986;5.760;2023-04-25T02:00:41;6.80;99.90
69082;DHT22;69029;51.986;5.760;2023-04-25T02:03:07;6.80;99.80
69082;DHT22;69029;51.986;5.760;2023-04-25T02:05:37;6.80;99.90
69082;DHT22;69029;51.986;5.760;2023-04-25T02:08:05;6.80;99.90
69082;DHT22;69029;51.986;5.760;2023-04-25T02:10:31;6.80;99.90
69082;DHT22;69029;51.986;5.760;2023-04-25T02:12:57;6.70;99.90
69082;DHT22;69029;51.986;5.760;2023-04-25T02:15:23;6.70;99.90
69082;DHT22;69029;51.986;5.760;2023-04-25T02:17:48;6.70;99.90
69082;DHT22;69029;51.986;5.760;2023-04-25T02:20:14;6.70;99.90
69082;DHT22;69029;51.986;5.760;2023-04-25T02:22:41;6.60;99.90
69082;DHT22;69029;51.986;5.760;2023-04-25T02:25:08;6.60;99.90
69082;DHT22;69029;51.986;5.760;2023-04-25T02:27:34;6.60;99.70
69082;DHT22;69029;51.986;5.760;2023-04-25T02:30:00;6.60;99.90
69082;DHT22;69029;51.986;5.760;2023-04-25T02:32:26;6.60;99.40
69082;DHT22;69029;51.986;5.760;2023-04-25T02:34:52;6.60;98.90
69082;DHT22;69029;51.986;5.760;2023-04-25T02:37:17;6.50;99.20
69082;DHT22;69029;51.986;5.760;2023-04-25T02:39:43;6.50;99.90
69082;DHT22;69029;51.986;5.760;2023-04-25T02:42:12;6.50;99.50
69082;DHT22;69029;51.986;5.760;2023-04-25T02:44:38;6.50;99.30
69082;DHT22;69029;51.986;5.760;2023-04-25T02:47:04;6.40;99.10
69082;DHT22;69029;51.986;5.760;2023-04-25T02:49:29;6.40;99.60
69082;DHT22;69029;51.986;5.760;2023-04-25T02:51:55;6.30;99.60
69082;DHT22;69029;51.986;5.760;2023-04-25T02:54:20;6.30;98.30
69082;DHT22;69029;51.986;5.760;2023-04-25T02:56:46;6.30;98.90
69082;DHT22;69029;51.986;5.760;2023-04-25T02:59:11;6.20;98.00
69082;DHT22;69029;51.986;5.760;2023-04-25T03:01:37;6.30;98.40
69082;DHT22;69029;51.986;5.760;2023-04-25T03:04:03;6.20;99.40
69082;DHT22;69029;51.986;5.760;2023-04-25T03:06:28;6.10;98.80
69082;DHT22;69029;51.986;5.760;2023-04-25T03:08:54;6.10;99.30
69082;DHT22;69029;51.986;5.760;2023-04-25T03:11:20;6.00;99.60
69082;DHT22;69029;51.986;5.760;2023-04-25T03:13:45;6.00;98.90
69082;DHT22;69029;51.986;5.760;2023-04-25T03:16:11;6.00;98.40
69082;DHT22;69029;51.986;5.760;2023-04-25T03:18:37;5.90;98.90
69082;DHT22;69029;51.986;5.760;2023-04-25T03:21:02;5.90;99.10
69082;DHT22;69029;51.986;5.760;2023-04-25T03:23:28;5.90;98.50
69082;DHT22;69029;51.986;5.760;2023-04-25T03:25:53;5.80;99.50
69082;DHT22;69029;51.986;5.760;2023-04-25T03:28:19;5.80;99.30
69082;DHT22;69029;51.986;5.760;2023-04-25T03:30:45;5.70;99.90
69082;DHT22;69029;51.986;5.760;2023-04-25T03:33:11;5.70;99.90
69082;DHT22;69029;51.986;5.760;2023-04-25T03:35:36;5.70;99.90
69082;DHT22;69029;51.986;5.760;2023-04-25T03:38:02;5.70;99.90
69082;DHT22;69029;51.986;5.760;2023-04-25T03:40:27;5.60;99.90
69082;DHT22;69029;51.986;5.760;2023-04-25T03:42:53;5.70;99.90
69082;DHT22;69029;51.986;5.760;2023-04-25T03:45:19;5.70;99.90
69082;DHT22;69029;51.986;5.760;2023-04-25T03:47:44;5.70;99.90
69082;DHT22;69029;51.986;5.760;2023-04-25T03:50:10;5.80;99.90
69082;DHT22;69029;51.986;5.760;2023-04-25T03:52:36;5.70;99.90
69082;DHT22;69029;51.986;5.760;2023-04-25T03:55:01;5.60;99.90
69082;DHT22;69029;51.986;5.760;2023-04-25T03:57:27;5.60;99.90
69082;DHT22;69029;51.986;5.760;2023-04-25T03:59:53;5.60;99.90
69082;DHT22;69029;51.986;5.760;2023-04-25T04:02:18;5.70;99.90
69082;DHT22;69029;51.986;5.760;2023-04-25T04:04:44;5.70;99.90
69082;DHT22;69029;51.986;5.760;2023-04-25T04:07:10;5.70;99.30
69082;DHT22;69029;51.986;5.760;2023-04-25T04:09:36;5.60;99.70
69082;DHT22;69029;51.986;5.760;2023-04-25T04:12:01;5.70;99.60
69082;DHT22;69029;51.986;5.760;2023-04-25T04:14:28;5.60;99.20
69082;DHT22;69029;51.986;5.760;2023-04-25T04:16:54;5.60;99.80
69082;DHT22;69029;51.986;5.760;2023-04-25T04:19:19;5.50;99.90
69082;DHT22;69029;51.986;5.760;2023-04-25T04:21:45;5.50;99.90
69082;DHT22;69029;51.986;5.760;2023-04-25T04:24:11;5.40;99.90
69082;DHT22;69029;51.986;5.760;2023-04-25T04:26:36;5.40;99.90
69082;DHT22;69029;51.986;5.760;2023-04-25T04:29:04;5.50;99.90
69082;DHT22;69029;51.986;5.760;2023-04-25T04:31:29;5.50;99.90
69082;DHT22;69029;51.986;5.760;2023-04-25T04:33:55;5.50;99.90
69082;DHT22;69029;51.986;5.760;2023-04-25T04:36:21;5.60;99.20
69082;DHT22;69029;51.986;5.760;2023-04-25T04:38:48;5.70;99.60
69082;DHT22;69029;51.986;5.760;2023-04-25T04:41:14;5.70;99.60
69082;DHT22;69029;51.986;5.760;2023-04-25T04:43:39;5.70;99.70
69082;DHT22;69029;51.986;5.760;2023-04-25T04:46:05;5.70;99.90
69082;DHT22;69029;51.986;5.760;2023-04-25T04:48:34;5.70;99.90
69082;DHT22;69029;51.986;5.760;2023-04-25T04:51:00;5.70;99.90
69082;DHT22;69029;51.986;5.760;2023-04-25T04:53:26;5.70;99.90
69082;DHT22;69029;51.986;5.760;2023-04-25T04:55:51;5.70;99.90
69082;DHT22;69029;51.986;5.760;2023-04-25T04:58:17;5.70;99.90
69082;DHT22;69029;51.986;5.760;2023-04-25T05:00:42;5.80;99.90
69082;DHT22;69029;51.986;5.760;2023-04-25T05:03:08;5.80;99.90
69082;DHT22;69029;51.986;5.760;2023-04-25T05:05:34;5.80;99.90
69082;DHT22;69029;51.986;5.760;2023-04-25T05:07:59;5.90;99.90
69082;DHT22;69029;51.986;5.760;2023-04-25T05:10:25;5.90;99.90
69082;DHT22;69029;51.986;5.760;2023-04-25T05:12:51;6.00;99.90
69082;DHT22;69029;51.986;5.760;2023-04-25T05:15:17;6.10;99.20
69082;DHT22;69029;51.986;5.760;2023-04-25T05:17:42;6.10;99.90
69082;DHT22;69029;51.986;5.760;2023-04-25T05:20:08;6.20;99.90
69082;DHT22;69029;51.986;5.760;2023-04-25T05:22:37;6.20;99.90
69082;DHT22;69029;51.986;5.760;2023-04-25T05:25:03;6.30;99.90
69082;DHT22;69029;51.986;5.760;2023-04-25T05:27:28;6.30;99.90
69082;DHT22;69029;51.986;5.760;2023-04-25T05:29:54;6.40;99.30
69082;DHT22;69029;51.986;5.760;2023-04-25T05:32:20;6.50;98.90
69082;DHT22;69029;51.986;5.760;2023-04-25T05:34:45;6.50;99.90
69082;DHT22;69029;51.986;5.760;2023-04-25T05:37:11;6.50;99.90
69082;DHT22;69029;51.986;5.760;2023-04-25T05:39:37;6.60;99.90
69082;DHT22;69029;51.986;5.760;2023-04-25T05:42:02;6.60;99.00
69082;DHT22;69029;51.986;5.760;2023-04-25T05:44:29;6.70;99.90
69082;DHT22;69029;51.986;5.760;2023-04-25T05:46:55;6.80;98.60
69082;DHT22;69029;51.986;5.760;2023-04-25T05:49:20;6.90;98.50
69082;DHT22;69029;51.986;5.760;2023-04-25T05:51:46;7.00;97.70
69082;DHT22;69029;51.986;5.760;2023-04-25T05:54:12;7.00;98.90
69082;DHT22;69029;51.986;5.760;2023-04-25T05:56:37;7.10;98.70
69082;DHT22;69029;51.986;5.760;2023-04-25T05:59:03;7.20;98.40
69082;DHT22;69029;51.986;5.760;2023-04-25T06:01:28;7.30;98.30
69082;DHT22;69029;51.986;5.760;2023-04-25T06:03:54;7.40;97.40
69082;DHT22;69029;51.986;5.760;2023-04-25T06:06:19;7.50;96.10
69082;DHT22;69029;51.986;5.760;2023-04-25T06:08:45;7.50;95.60
69082;DHT22;69029;51.986;5.760;2023-04-25T06:11:11;7.60;94.60
69082;DHT22;69029;51.986;5.760;2023-04-25T06:13:37;7.60;95.90
69082;DHT22;69029;51.986;5.760;2023-04-25T06:16:02;7.70;95.80
69082;DHT22;69029;51.986;5.760;2023-04-25T06:18:28;7.80;95.00
69082;DHT22;69029;51.986;5.760;2023-04-25T06:20:53;7.80;92.80
69082;DHT22;69029;51.986;5.760;2023-04-25T06:23:19;7.90;93.60
69082;DHT22;69029;51.986;5.760;2023-04-25T06:25:45;8.00;93.90
69082;DHT22;69029;51.986;5.760;2023-04-25T06:28:10;8.00;92.60
69082;DHT22;69029;51.986;5.760;2023-04-25T06:30:36;7.90;92.10
69082;DHT22;69029;51.986;5.760;2023-04-25T06:33:02;8.00;93.20
69082;DHT22;69029;51.986;5.760;2023-04-25T06:35:27;8.00;93.60
69082;DHT22;69029;51.986;5.760;2023-04-25T06:37:53;8.10;92.80
69082;DHT22;69029;51.986;5.760;2023-04-25T06:40:18;8.10;92.90
69082;DHT22;69029;51.986;5.760;2023-04-25T06:42:44;8.20;92.30
69082;DHT22;69029;51.986;5.760;2023-04-25T06:45:10;8.30;92.30
69082;DHT22;69029;51.986;5.760;2023-04-25T06:47:36;8.40;93.30
69082;DHT22;69029;51.986;5.760;2023-04-25T06:50:01;8.50;93.20
69082;DHT22;69029;51.986;5.760;2023-04-25T06:52:27;8.60;93.40
69082;DHT22;69029;51.986;5.760;2023-04-25T06:54:53;8.60;92.70
69082;DHT22;69029;51.986;5.760;2023-04-25T06:57:18;8.70;92.30
69082;DHT22;69029;51.986;5.760;2023-04-25T06:59:44;8.70;92.30
69082;DHT22;69029;51.986;5.760;2023-04-25T07:02:09;8.80;91.80
69082;DHT22;69029;51.986;5.760;2023-04-25T07:04:35;8.80;92.10
69082;DHT22;69029;51.986;5.760;2023-04-25T07:07:00;8.90;91.80
69082;DHT22;69029;51.986;5.760;2023-04-25T07:09:28;9.00;91.60
69082;DHT22;69029;51.986;5.760;2023-04-25T07:11:53;9.10;91.30
69082;DHT22;69029;51.986;5.760;2023-04-25T07:14:19;9.10;90.80
69082;DHT22;69029;51.986;5.760;2023-04-25T07:16:45;9.10;90.60
69082;DHT22;69029;51.986;5.760;2023-04-25T07:19:11;9.20;90.70
69082;DHT22;69029;51.986;5.760;2023-04-25T07:21:36;9.30;90.60
69082;DHT22;69029;51.986;5.760;2023-04-25T07:24:02;9.30;89.70
69082;DHT22;69029;51.986;5.760;2023-04-25T07:26:28;9.40;90.10
69082;DHT22;69029;51.986;5.760;2023-04-25T07:28:53;9.40;88.90
69082;DHT22;69029;51.986;5.760;2023-04-25T07:31:20;9.40;90.10
69082;DHT22;69029;51.986;5.760;2023-04-25T07:33:46;9.30;89.80
69082;DHT22;69029;51.986;5.760;2023-04-25T07:36:12;9.40;90.10
69082;DHT22;69029;51.986;5.760;2023-04-25T07:38:38;9.40;88.40
69082;DHT22;69029;51.986;5.760;2023-04-25T07:41:04;9.40;89.60
69082;DHT22;69029;51.986;5.760;2023-04-25T07:43:30;9.50;86.80
69082;DHT22;69029;51.986;5.760;2023-04-25T07:45:56;9.50;88.40
69082;DHT22;69029;51.986;5.760;2023-04-25T07:48:22;9.60;87.90
69082;DHT22;69029;51.986;5.760;2023-04-25T07:50:48;9.70;87.00
69082;DHT22;69029;51.986;5.760;2023-04-25T07:53:14;9.80;84.40
69082;DHT22;69029;51.986;5.760;2023-04-25T07:55:40;10.00;86.60
69082;DHT22;69029;51.986;5.760;2023-04-25T07:58:06;10.10;86.10
69082;DHT22;69029;51.986;5.760;2023-04-25T08:00:32;9.90;85.70
69082;DHT22;69029;51.986;5.760;2023-04-25T08:02:58;10.00;85.40
69082;DHT22;69029;51.986;5.760;2023-04-25T08:05:23;10.00;84.80
69082;DHT22;69029;51.986;5.760;2023-04-25T08:07:49;9.90;84.40
69082;DHT22;69029;51.986;5.760;2023-04-25T08:10:15;9.90;83.70
69082;DHT22;69029;51.986;5.760;2023-04-25T08:12:40;9.70;84.70
69082;DHT22;69029;51.986;5.760;2023-04-25T08:15:07;9.70;87.70
69082;DHT22;69029;51.986;5.760;2023-04-25T08:17:32;9.70;85.30
69082;DHT22;69029;51.986;5.760;2023-04-25T08:19:58;10.00;82.70
69082;DHT22;69029;51.986;5.760;2023-04-25T08:22:24;10.30;83.40
69082;DHT22;69029;51.986;5.760;2023-04-25T08:24:49;10.60;84.70
69082;DHT22;69029;51.986;5.760;2023-04-25T08:27:15;10.80;77.50
69082;DHT22;69029;51.986;5.760;2023-04-25T08:29:41;10.90;79.70
69082;DHT22;69029;51.986;5.760;2023-04-25T08:32:07;11.00;78.20
69082;DHT22;69029;51.986;5.760;2023-04-25T08:34:32;10.80;82.50
69082;DHT22;69029;51.986;5.760;2023-04-25T08:36:58;10.70;79.80
69082;DHT22;69029;51.986;5.760;2023-04-25T08:39:24;10.70;80.20
69082;DHT22;69029;51.986;5.760;2023-04-25T08:41:50;10.80;78.80
69082;DHT22;69029;51.986;5.760;2023-04-25T08:44:16;10.90;76.10
69082;DHT22;69029;51.986;5.760;2023-04-25T08:46:42;10.90;78.50
69082;DHT22;69029;51.986;5.760;2023-04-25T08:49:12;10.90;79.40
69082;DHT22;69029;51.986;5.760;2023-04-25T08:51:44;11.00;79.50
69082;DHT22;69029;51.986;5.760;2023-04-25T08:54:13;11.10;76.20
69082;DHT22;69029;51.986;5.760;2023-04-25T08:56:48;11.20;77.60
69082;DHT22;69029;51.986;5.760;2023-04-25T08:59:14;11.10;81.00
69082;DHT22;69029;51.986;5.760;2023-04-25T09:01:40;11.10;78.50
69082;DHT22;69029;51.986;5.760;2023-04-25T09:04:06;11.10;80.60
69082;DHT22;69029;51.986;5.760;2023-04-25T09:06:32;11.00;80.90
69082;DHT22;69029;51.986;5.760;2023-04-25T09:09:05;11.10;78.70
69082;DHT22;69029;51.986;5.760;2023-04-25T09:11:32;11.10;82.10
69082;DHT22;69029;51.986;5.760;2023-04-25T09:14:30;11.00;81.20
69082;DHT22;69029;51.986;5.760;2023-04-25T09:19:29;10.70;80.10
69082;DHT22;69029;51.986;5.760;2023-04-25T09:21:56;10.80;81.20
69082;DHT22;69029;51.986;5.760;2023-04-25T09:24:42;10.90;76.90
69082;DHT22;69029;51.986;5.760;2023-04-25T09:27:13;10.90;74.60
69082;DHT22;69029;51.986;5.760;2023-04-25T09:29:43;11.00;73.50
69082;DHT22;69029;51.986;5.760;2023-04-25T09:34:42;10.90;78.50
69082;DHT22;69029;51.986;5.760;2023-04-25T09:37:11;11.00;71.80
69082;DHT22;69029;51.986;5.760;2023-04-25T09:39:38;10.90;75.70
69082;DHT22;69029;51.986;5.760;2023-04-25T09:42:04;10.80;79.20
69082;DHT22;69029;51.986;5.760;2023-04-25T09:44:30;11.00;74.10
69082;DHT22;69029;51.986;5.760;2023-04-25T09:46:56;11.00;77.20
69082;DHT22;69029;51.986;5.760;2023-04-25T09:49:22;11.20;71.10
69082;DHT22;69029;51.986;5.760;2023-04-25T09:51:58;11.10;74.90
69082;DHT22;69029;51.986;5.760;2023-04-25T09:54:25;11.30;77.90
69082;DHT22;69029;51.986;5.760;2023-04-25T09:56:52;11.30;74.10
69082;DHT22;69029;51.986;5.760;2023-04-25T09:59:22;11.40;78.50
69082;DHT22;69029;51.986;5.760;2023-04-25T10:01:51;11.70;75.70
69082;DHT22;69029;51.986;5.760;2023-04-25T10:04:24;11.80;70.00
69082;DHT22;69029;51.986;5.760;2023-04-25T10:06:53;11.80;73.00
69082;DHT22;69029;51.986;5.760;2023-04-25T10:09:21;12.00;73.30
69082;DHT22;69029;51.986;5.760;2023-04-25T10:11:48;12.30;70.10
69082;DHT22;69029;51.986;5.760;2023-04-25T10:14:16;12.70;69.20
69082;DHT22;69029;51.986;5.760;2023-04-25T10:16:42;12.60;66.00
69082;DHT22;69029;51.986;5.760;2023-04-25T10:19:09;12.40;76.10
69082;DHT22;69029;51.986;5.760;2023-04-25T10:21:40;12.40;78.30
69082;DHT22;69029;51.986;5.760;2023-04-25T10:24:09;12.50;72.90
69082;DHT22;69029;51.986;5.760;2023-04-25T10:26:35;12.70;73.80
69082;DHT22;69029;51.986;5.760;2023-04-25T10:29:03;12.70;69.50
69082;DHT22;69029;51.986;5.760;2023-04-25T10:31:32;12.60;69.50
69082;DHT22;69029;51.986;5.760;2023-04-25T10:34:04;12.80;75.20
69082;DHT22;69029;51.986;5.760;2023-04-25T10:36:33;13.00;73.10
69082;DHT22;69029;51.986;5.760;2023-04-25T10:39:06;13.10;77.20
69082;DHT22;69029;51.986;5.760;2023-04-25T10:41:58;13.30;71.80
69082;DHT22;69029;51.986;5.760;2023-04-25T10:44:27;13.50;72.10
69082;DHT22;69029;51.986;5.760;2023-04-25T10:46:55;13.40;70.90
69082;DHT22;69029;51.986;5.760;2023-04-25T10:49:33;13.40;72.60
69082;DHT22;69029;51.986;5.760;2023-04-25T10:52:24;13.50;72.70
69082;DHT22;69029;51.986;5.760;2023-04-25T10:54:54;13.90;70.30
69082;DHT22;69029;51.986;5.760;2023-04-25T10:57:37;14.20;65.90
69082;DHT22;69029;51.986;5.760;2023-04-25T11:00:20;14.80;67.00
69082;DHT22;69029;51.986;5.760;2023-04-25T11:03:07;15.20;63.30
69082;DHT22;69029;51.986;5.760;2023-04-25T11:05:35;15.60;69.80
69082;DHT22;69029;51.986;5.760;2023-04-25T11:08:02;16.30;67.20
69082;DHT22;69029;51.986;5.760;2023-04-25T11:10:30;16.30;67.80
69082;DHT22;69029;51.986;5.760;2023-04-25T11:12:56;16.50;65.80
69082;DHT22;69029;51.986;5.760;2023-04-25T11:15:22;17.30;62.20
69082;DHT22;69029;51.986;5.760;2023-04-25T11:17:48;18.10;64.20
69082;DHT22;69029;51.986;5.760;2023-04-25T11:20:14;18.40;66.50
69082;DHT22;69029;51.986;5.760;2023-04-25T11:22:41;19.10;65.90
69082;DHT22;69029;51.986;5.760;2023-04-25T11:25:08;19.50;69.30
69082;DHT22;69029;51.986;5.760;2023-04-25T11:27:38;19.90;57.20
69082;DHT22;69029;51.986;5.760;2023-04-25T11:30:14;19.60;56.20
69082;DHT22;69029;51.986;5.760;2023-04-25T11:32:41;19.50;56.70
69082;DHT22;69029;51.986;5.760;2023-04-25T11:35:07;19.50;74.50
69082;DHT22;69029;51.986;5.760;2023-04-25T11:37:33;19.50;71.00
69082;DHT22;69029;51.986;5.760;2023-04-25T11:40:00;20.20;60.80
69082;DHT22;69029;51.986;5.760;2023-04-25T11:42:25;20.70;67.50
69082;DHT22;69029;51.986;5.760;2023-04-25T11:44:52;20.80;60.70
69082;DHT22;69029;51.986;5.760;2023-04-25T11:47:17;20.80;65.90
69082;DHT22;69029;51.986;5.760;2023-04-25T11:49:43;21.60;53.30
69082;DHT22;69029;51.986;5.760;2023-04-25T11:52:08;22.40;58.40
69082;DHT22;69029;51.986;5.760;2023-04-25T11:54:37;22.30;63.70
69082;DHT22;69029;51.986;5.760;2023-04-25T11:57:04;21.50;49.30
69082;DHT22;69029;51.986;5.760;2023-04-25T11:59:29;21.00;58.70
69082;DHT22;69029;51.986;5.760;2023-04-25T12:01:55;20.50;67.60
69082;DHT22;69029;51.986;5.760;2023-04-25T12:04:24;20.00;62.90
69082;DHT22;69029;51.986;5.760;2023-04-25T12:06:52;19.30;58.00
69082;DHT22;69029;51.986;5.760;2023-04-25T12:09:20;18.90;63.50
69082;DHT22;69029;51.986;5.760;2023-04-25T12:11:54;18.70;68.20
69082;DHT22;69029;51.986;5.760;2023-04-25T12:14:23;18.40;66.50
69082;DHT22;69029;51.986;5.760;2023-04-25T12:16:50;18.10;64.70
69082;DHT22;69029;51.986;5.760;2023-04-25T12:19:18;17.90;65.00
69082;DHT22;69029;51.986;5.760;2023-04-25T12:21:44;17.50;66.20
69082;DHT22;69029;51.986;5.760;2023-04-25T12:24:28;17.30;65.70
69082;DHT22;69029;51.986;5.760;2023-04-25T12:27:04;17.20;64.90
69082;DHT22;69029;51.986;5.760;2023-04-25T12:29:34;17.20;63.70
69082;DHT22;69029;51.986;5.760;2023-04-25T12:32:00;17.10;56.20
69082;DHT22;69029;51.986;5.760;2023-04-25T12:34:27;16.80;53.40
69082;DHT22;69029;51.986;5.760;2023-04-25T12:36:53;16.50;58.70
69082;DHT22;69029;51.986;5.760;2023-04-25T12:39:21;16.40;61.90
69082;DHT22;69029;51.986;5.760;2023-04-25T12:41:51;16.50;64.40
69082;DHT22;69029;51.986;5.760;2023-04-25T12:44:20;16.70;60.10
69082;DHT22;69029;51.986;5.760;2023-04-25T12:46:47;16.70;60.90
69082;DHT22;69029;51.986;5.760;2023-04-25T12:49:12;16.90;57.10
69082;DHT22;69029;51.986;5.760;2023-04-25T12:51:38;17.50;57.50
69082;DHT22;69029;51.986;5.760;2023-04-25T12:54:05;18.20;56.20
69082;DHT22;69029;51.986;5.760;2023-04-25T12:56:34;18.90;55.60
69082;DHT22;69029;51.986;5.760;2023-04-25T12:59:00;19.20;56.90
69082;DHT22;69029;51.986;5.760;2023-04-25T13:01:26;20.00;55.70
69082;DHT22;69029;51.986;5.760;2023-04-25T13:03:52;20.70;53.20
69082;DHT22;69029;51.986;5.760;2023-04-25T13:06:18;21.50;49.00
69082;DHT22;69029;51.986;5.760;2023-04-25T13:08:44;22.50;44.80
69082;DHT22;69029;51.986;5.760;2023-04-25T13:11:10;22.00;55.80
69082;DHT22;69029;51.986;5.760;2023-04-25T13:13:37;21.00;58.60
69082;DHT22;69029;51.986;5.760;2023-04-25T13:16:03;20.60;63.40
69082;DHT22;69029;51.986;5.760;2023-04-25T13:18:30;20.40;61.70
69082;DHT22;69029;51.986;5.760;2023-04-25T13:20:57;21.30;51.10
69082;DHT22;69029;51.986;5.760;2023-04-25T13:23:24;22.60;55.30
69082;DHT22;69029;51.986;5.760;2023-04-25T13:25:50;23.40;52.80
69082;DHT22;69029;51.986;5.760;2023-04-25T13:28:16;23.60;46.00
69082;DHT22;69029;51.986;5.760;2023-04-25T13:30:41;23.70;48.00
69082;DHT22;69029;51.986;5.760;2023-04-25T13:33:07;24.80;43.50
69082;DHT22;69029;51.986;5.760;2023-04-25T13:35:34;25.20;50.40
69082;DHT22;69029;51.986;5.760;2023-04-25T13:38:00;25.50;56.20
69082;DHT22;69029;51.986;5.760;2023-04-25T13:40:26;26.00;43.90
69082;DHT22;69029;51.986;5.760;2023-04-25T13:42:52;26.30;49.60
69082;DHT22;69029;51.986;5.760;2023-04-25T13:45:19;25.50;39.50
69082;DHT22;69029;51.986;5.760;2023-04-25T13:47:45;26.30;41.20
69082;DHT22;69029;51.986;5.760;2023-04-25T13:50:11;25.40;41.70
69082;DHT22;69029;51.986;5.760;2023-04-25T13:52:37;24.80;44.20
69082;DHT22;69029;51.986;5.760;2023-04-25T13:55:02;24.10;43.80
69082;DHT22;69029;51.986;5.760;2023-04-25T13:57:30;24.80;42.90
69082;DHT22;69029;51.986;5.760;2023-04-25T13:59:56;24.90;43.00
69082;DHT22;69029;51.986;5.760;2023-04-25T14:02:22;25.40;41.30
69082;DHT22;69029;51.986;5.760;2023-04-25T14:04:48;26.60;42.00
69082;DHT22;69029;51.986;5.760;2023-04-25T14:07:14;26.60;40.80
69082;DHT22;69029;51.986;5.760;2023-04-25T14:09:43;25.30;40.60
69082;DHT22;69029;51.986;5.760;2023-04-25T14:12:09;24.20;40.30
69082;DHT22;69029;51.986;5.760;2023-04-25T14:14:35;23.30;43.50
69082;DHT22;69029;51.986;5.760;2023-04-25T14:17:01;22.80;44.40
69082;DHT22;69029;51.986;5.760;2023-04-25T14:19:26;22.20;46.50
69082;DHT22;69029;51.986;5.760;2023-04-25T14:21:54;22.20;44.70
69082;DHT22;69029;51.986;5.760;2023-04-25T14:24:19;23.20;42.70
69082;DHT22;69029;51.986;5.760;2023-04-25T14:26:45;23.80;38.00
69082;DHT22;69029;51.986;5.760;2023-04-25T14:29:11;24.40;39.00
69082;DHT22;69029;51.986;5.760;2023-04-25T14:31:39;25.50;35.20
69082;DHT22;69029;51.986;5.760;2023-04-25T14:34:05;25.90;34.80
69082;DHT22;69029;51.986;5.760;2023-04-25T14:36:31;26.00;34.00
69082;DHT22;69029;51.986;5.760;2023-04-25T14:38:57;26.10;35.90
69082;DHT22;69029;51.986;5.760;2023-04-25T14:41:26;26.10;39.90
69082;DHT22;69029;51.986;5.760;2023-04-25T14:43:52;25.00;34.50
69082;DHT22;69029;51.986;5.760;2023-04-25T14:46:21;24.00;40.00
69082;DHT22;69029;51.986;5.760;2023-04-25T14:48:50;23.10;41.20
69082;DHT22;69029;51.986;5.760;2023-04-25T14:51:16;22.50;41.00
69082;DHT22;69029;51.986;5.760;2023-04-25T14:53:42;22.00;43.80
69082;DHT22;69029;51.986;5.760;2023-04-25T14:56:08;21.80;41.70
69082;DHT22;69029;51.986;5.760;2023-04-25T14:58:34;21.80;41.70
69082;DHT22;69029;51.986;5.760;2023-04-25T15:01:00;22.40;38.30
69082;DHT22;69029;51.986;5.760;2023-04-25T15:03:26;23.40;38.10
69082;DHT22;69029;51.986;5.760;2023-04-25T15:05:54;24.50;33.50
69082;DHT22;69029;51.986;5.760;2023-04-25T15:08:20;24.70;35.10
69082;DHT22;69029;51.986;5.760;2023-04-25T15:10:46;24.70;37.40
69082;DHT22;69029;51.986;5.760;2023-04-25T15:13:11;25.10;33.70
69082;DHT22;69029;51.986;5.760;2023-04-25T15:15:37;24.60;33.20
69082;DHT22;69029;51.986;5.760;2023-04-25T15:18:03;24.00;33.70
69082;DHT22;69029;51.986;5.760;2023-04-25T15:20:28;22.60;38.50
69082;DHT22;69029;51.986;5.760;2023-04-25T15:22:55;21.80;42.30
69082;DHT22;69029;51.986;5.760;2023-04-25T15:25:20;21.20;40.00
69082;DHT22;69029;51.986;5.760;2023-04-25T15:27:46;20.30;42.70
69082;DHT22;69029;51.986;5.760;2023-04-25T15:30:17;19.90;45.50
69082;DHT22;69029;51.986;5.760;2023-04-25T15:32:47;20.00;42.40
69082;DHT22;69029;51.986;5.760;2023-04-25T15:35:13;19.80;44.10
69082;DHT22;69029;51.986;5.760;2023-04-25T15:37:40;19.50;43.70
69082;DHT22;69029;51.986;5.760;2023-04-25T15:42:36;19.00;44.20
69082;DHT22;69029;51.986;5.760;2023-04-25T15:45:06;20.00;41.90